createdAt,value
2023-04-16T00:30:35.644Z,1.45
2023-04-16T00:34:38.902Z,1.77
2023-04-16T00:38:42.151Z,1.67
2023-04-16T00:42:45.195Z,2.47
2023-04-16T00:46:50.219Z,1.50
2023-04-16T00:50:55.209Z,3.50
2023-04-16T00:54:58.356Z,2.85
2023-04-16T00:59:01.570Z,2.33
2023-04-16T01:03:06.680Z,2.50
2023-04-16T01:07:10.185Z,1.85
2023-04-16T01:11:13.427Z,2.63
2023-04-16T01:15:16.530Z,3.38
2023-04-16T01:19:21.020Z,2.75
2023-04-16T01:23:25.851Z,3.72
2023-04-16T01:27:29.034Z,3.50
2023-04-16T01:31:32.219Z,3.63
2023-04-16T01:35:35.269Z,3.55
2023-04-16T01:39:39.891Z,4.28
2023-04-16T01:43:42.989Z,3.50
2023-04-16T01:47:46.056Z,2.72
2023-04-16T01:51:49.593Z,2.90
2023-04-16T01:55:54.076Z,4.22
2023-04-16T01:59:57.085Z,2.80
2023-04-16T02:04:00.223Z,2.55
2023-04-16T02:08:03.583Z,3.17
2023-04-16T02:12:09.877Z,5.53
2023-04-16T02:16:12.948Z,3.47
2023-04-16T02:20:16.393Z,7.40
2023-04-16T02:24:19.423Z,5.97
2023-04-16T02:28:23.954Z,5.05
2023-04-16T02:32:27.214Z,4.22
2023-04-16T02:36:31.733Z,6.63
2023-04-16T02:40:34.908Z,5.22
2023-04-16T02:44:39.513Z,4.72
2023-04-16T02:48:42.570Z,3.80
2023-04-16T02:52:45.948Z,3.20
2023-04-16T02:56:49.028Z,3.58
2023-04-16T03:00:54.328Z,4.55
2023-04-16T03:04:57.630Z,4.75
2023-04-16T03:09:00.697Z,5.22
2023-04-16T03:13:04.279Z,5.55
2023-04-16T03:17:08.976Z,5.45
2023-04-16T03:21:12.058Z,4.85
2023-04-16T03:25:15.348Z,9.20
2023-04-16T03:29:18.489Z,7.05
2023-04-16T03:33:22.990Z,4.80
2023-04-16T03:37:26.407Z,4.85
2023-04-16T03:41:29.540Z,4.97
2023-04-16T03:45:32.742Z,5.60
2023-04-16T03:49:37.119Z,5.90
2023-04-16T03:53:40.258Z,6.03
2023-04-16T03:57:43.364Z,5.72
2023-04-16T04:01:46.794Z,5.82
2023-04-16T04:05:51.350Z,5.97
2023-04-16T04:09:54.749Z,10.68
2023-04-16T04:13:57.799Z,7.70
2023-04-16T04:18:01.011Z,7.97
2023-04-16T04:22:05.911Z,7.63
2023-04-16T04:26:08.874Z,10.40
2023-04-16T04:30:13.153Z,8.13
2023-04-16T04:34:16.212Z,8.43
2023-04-16T04:38:22.173Z,9.10
2023-04-16T04:42:26.016Z,9.88
2023-04-16T04:50:32.068Z,9.80
2023-04-16T04:54:36.619Z,11.05
2023-04-16T04:58:39.437Z,10.43
2023-04-16T05:02:42.694Z,9.93
2023-04-16T05:06:45.729Z,9.25
2023-04-16T05:10:50.136Z,9.30
2023-04-16T05:14:53.076Z,9.45
2023-04-16T05:18:56.187Z,8.48
2023-04-16T05:22:59.144Z,7.53
2023-04-16T05:27:03.579Z,9.75
2023-04-16T05:31:06.933Z,7.47
2023-04-16T05:35:11.094Z,8.52
2023-04-16T05:39:14.146Z,7.90
2023-04-16T05:43:18.890Z,8.00
2023-04-16T05:47:21.941Z,9.25
2023-04-16T05:51:26.332Z,8.48
2023-04-16T05:55:29.098Z,8.20
2023-04-16T05:59:34.818Z,8.68
2023-04-16T06:03:37.827Z,7.82
2023-04-16T06:07:40.827Z,9.98
2023-04-16T06:11:43.890Z,8.88
2023-04-16T06:15:48.544Z,10.48
2023-04-16T06:19:51.593Z,9.68
2023-04-16T06:23:56.179Z,7.50
2023-04-16T06:27:59.116Z,15.55
2023-04-16T06:32:03.950Z,7.10
2023-04-16T06:36:06.885Z,8.07
2023-04-16T06:40:10.946Z,7.28
2023-04-16T06:44:14.665Z,8.18
2023-04-16T06:48:19.276Z,8.05
2023-04-16T06:52:22.411Z,6.22
2023-04-16T06:56:25.115Z,4.85
2023-04-16T07:00:28.452Z,7.80
2023-04-16T07:04:32.794Z,7.13
2023-04-16T07:08:35.881Z,8.80
2023-04-16T07:12:38.978Z,6.40
2023-04-16T07:16:42.307Z,8.07
2023-04-16T07:20:46.901Z,5.82
2023-04-16T07:24:49.894Z,7.97
2023-04-16T07:28:53.045Z,7.28
2023-04-16T07:32:56.063Z,7.95
2023-04-16T07:37:00.920Z,8.02
2023-04-16T07:41:04.221Z,8.80
2023-04-16T07:45:08.521Z,8.68
2023-04-16T07:49:11.840Z,8.73
2023-04-16T07:53:16.324Z,8.57
2023-04-16T07:57:19.305Z,8.15
2023-04-16T08:01:22.859Z,6.95
2023-04-16T08:05:25.821Z,8.57
2023-04-16T08:09:30.332Z,6.10
2023-04-16T08:13:33.762Z,7.00
2023-04-16T08:17:37.958Z,6.82
2023-04-16T08:21:41.216Z,6.63
2023-04-16T08:25:45.595Z,7.72
2023-04-16T08:29:48.692Z,6.65
2023-04-16T08:33:51.643Z,7.22
2023-04-16T08:37:54.707Z,6.10
2023-04-16T08:41:59.656Z,7.03
2023-04-16T08:46:03.239Z,7.57
2023-04-16T08:54:11.170Z,7.95
2023-04-16T08:58:16.529Z,6.47
2023-04-16T09:02:19.684Z,6.97
2023-04-16T09:06:23.094Z,8.13
2023-04-16T09:10:26.700Z,6.28
2023-04-16T09:18:33.850Z,5.93
2023-04-16T09:22:36.856Z,7.35
2023-04-16T09:26:40.049Z,6.25
2023-04-16T09:30:48.138Z,7.25
2023-04-16T09:34:59.347Z,6.53
2023-04-16T09:39:02.615Z,6.43
2023-04-16T09:43:12.509Z,8.43
2023-04-16T09:47:18.397Z,7.60
2023-04-16T09:51:21.533Z,6.82
2023-04-16T09:55:27.982Z,6.72
2023-04-16T09:59:34.395Z,6.28
2023-04-16T10:03:40.035Z,7.00
2023-04-16T10:07:43.523Z,5.40
2023-04-16T10:11:46.652Z,6.45
2023-04-16T10:15:50.002Z,6.32
2023-04-16T10:19:55.976Z,5.78
2023-04-16T10:23:59.061Z,6.70
2023-04-16T10:28:01.946Z,5.88
2023-04-16T10:32:05.393Z,5.53
2023-04-16T10:40:24.584Z,5.50
2023-04-16T10:44:27.968Z,16.45
2023-04-16T10:48:38.724Z,7.32
2023-04-16T10:53:20.756Z,6.93
2023-04-16T10:57:23.797Z,6.40
2023-04-16T11:01:34.947Z,7.60
2023-04-16T11:05:48.054Z,15.93
2023-04-16T11:09:58.074Z,18.02
2023-04-16T11:14:01.260Z,5.63
2023-04-16T11:18:06.894Z,5.75
2023-04-16T11:22:11.680Z,7.75
2023-04-16T11:26:26.283Z,6.82
2023-04-16T11:30:30.931Z,6.35
2023-04-16T11:34:34.016Z,10.85
2023-04-16T11:38:38.100Z,6.38
2023-04-16T11:42:43.523Z,6.38
2023-04-16T11:46:46.485Z,7.07
2023-04-16T11:50:57.038Z,6.53
2023-04-16T11:55:00.919Z,7.07
2023-04-16T11:59:13.241Z,6.57
2023-04-16T12:03:16.883Z,6.40
2023-04-16T12:07:19.912Z,7.47
2023-04-16T12:11:23.292Z,6.57
2023-04-16T12:15:45.023Z,6.45
2023-04-16T12:19:53.025Z,6.25
2023-04-16T12:23:55.725Z,7.47
2023-04-16T12:27:59.045Z,7.18
2023-04-16T12:32:03.213Z,6.45
2023-04-16T12:36:18.844Z,7.50
2023-04-16T12:40:21.749Z,6.53
2023-04-16T12:44:25.200Z,7.07
2023-04-16T12:48:30.272Z,6.28
2023-04-16T12:52:33.474Z,7.00
2023-04-16T12:56:39.267Z,7.47
2023-04-16T13:00:42.396Z,7.70
2023-04-16T13:04:46.861Z,6.30
2023-04-16T13:08:49.650Z,6.32
2023-04-16T13:12:52.847Z,7.55
2023-04-16T13:21:00.436Z,6.13
2023-04-16T13:25:03.324Z,6.45
2023-04-16T13:29:06.496Z,6.22
2023-04-16T13:37:15.395Z,8.23
2023-04-16T13:41:18.325Z,6.30
2023-04-16T13:45:21.892Z,8.02
2023-04-16T13:49:25.457Z,8.88
2023-04-16T13:53:32.973Z,8.27
2023-04-16T13:57:36.673Z,7.63
2023-04-16T14:01:40.080Z,8.63
2023-04-16T14:05:43.420Z,10.27
2023-04-16T14:13:51.483Z,8.93
2023-04-16T14:17:55.071Z,9.15
2023-04-16T14:21:58.117Z,10.60
2023-04-16T14:26:02.812Z,8.70
2023-04-16T14:30:07.073Z,9.45
2023-04-16T14:34:09.919Z,9.70
2023-04-16T14:38:12.951Z,10.50
2023-04-16T14:42:17.434Z,9.43
2023-04-16T14:46:20.161Z,8.93
2023-04-16T14:50:23.508Z,7.88
2023-04-16T14:54:26.606Z,11.30
2023-04-16T14:58:31.795Z,9.82
2023-04-16T15:02:35.493Z,10.13
2023-04-16T15:06:38.468Z,8.40
2023-04-16T15:10:43.516Z,10.80
2023-04-16T15:14:48.011Z,12.93
2023-04-16T15:18:51.597Z,11.60
2023-04-16T15:22:54.389Z,10.43
2023-04-16T15:26:58.063Z,12.30
2023-04-16T15:31:02.532Z,12.80
2023-04-16T15:35:06.271Z,13.05
2023-04-16T15:39:09.736Z,13.70
2023-04-16T15:43:12.878Z,16.30
2023-04-16T15:47:17.170Z,15.15
2023-04-16T15:51:20.528Z,14.13
2023-04-16T15:59:26.532Z,14.18
2023-04-16T16:03:33.030Z,14.45
2023-04-16T16:07:37.605Z,14.88
2023-04-16T16:11:41.462Z,17.23
2023-04-16T16:15:44.322Z,15.40
2023-04-16T16:19:49.335Z,15.85
2023-04-16T16:23:52.627Z,15.38
2023-04-16T16:27:55.562Z,15.98
2023-04-16T16:31:58.551Z,15.52
2023-04-16T16:36:02.984Z,14.82
2023-04-16T16:40:07.804Z,16.58
2023-04-16T16:44:10.598Z,16.35
2023-04-16T16:48:13.562Z,13.95
2023-04-16T16:52:18.132Z,18.73
2023-04-16T16:56:21.129Z,17.30
2023-04-16T17:00:24.372Z,16.33
2023-04-16T17:04:27.232Z,16.50
2023-04-16T17:08:31.777Z,15.20
2023-04-16T17:12:34.576Z,16.23
2023-04-16T17:16:37.539Z,16.80
2023-04-16T17:20:40.573Z,13.73
2023-04-16T17:24:45.169Z,15.20
2023-04-16T17:28:48.089Z,12.82
2023-04-16T17:32:50.992Z,14.95
2023-04-16T17:36:54.120Z,14.48
2023-04-16T17:40:58.877Z,16.67
2023-04-16T17:45:02.112Z,14.70
2023-04-16T17:49:05.199Z,13.10
2023-04-16T17:53:08.010Z,16.08
2023-04-16T17:57:12.508Z,15.10
2023-04-16T18:01:15.638Z,15.05
2023-04-16T18:05:19.108Z,15.15
2023-04-16T18:09:22.006Z,16.63
2023-04-16T18:13:26.642Z,15.40
2023-04-16T18:17:29.408Z,16.38
2023-04-16T18:21:32.276Z,15.23
2023-04-16T18:25:35.454Z,14.88
2023-04-16T18:29:40.740Z,15.90
2023-04-16T18:33:56.773Z,17.23
2023-04-16T18:38:01.679Z,14.52
2023-04-16T18:42:05.264Z,15.82
2023-04-16T18:46:09.477Z,15.35
2023-04-16T18:50:12.423Z,16.95
2023-04-16T18:54:15.856Z,15.82
2023-04-16T18:58:18.998Z,14.45
2023-04-16T19:02:24.186Z,16.90
2023-04-16T19:06:27.907Z,14.95
2023-04-16T19:10:31.076Z,14.15
2023-04-16T19:14:34.266Z,17.55
2023-04-16T19:18:38.638Z,16.48
2023-04-16T19:22:41.671Z,19.00
2023-04-16T19:26:44.448Z,15.75
2023-04-16T19:30:47.320Z,15.35
2023-04-16T19:34:51.405Z,14.25
2023-04-16T19:38:54.310Z,17.00
2023-04-16T19:42:57.239Z,20.20
2023-04-16T19:46:59.985Z,15.52
2023-04-16T19:51:05.588Z,15.55
2023-04-16T19:55:09.499Z,19.52
2023-04-16T19:59:12.309Z,15.60
2023-04-16T20:03:15.099Z,20.10
2023-04-16T20:07:19.282Z,17.70
2023-04-16T20:11:21.871Z,14.23
2023-04-16T20:15:24.526Z,17.73
2023-04-16T20:19:33.666Z,20.30
2023-04-16T20:23:37.927Z,20.50
2023-04-16T20:27:40.628Z,24.25
2023-04-16T20:31:44.407Z,26.73
2023-04-16T20:35:47.804Z,26.55
2023-04-16T20:39:54.109Z,30.70
2023-04-16T20:43:56.922Z,30.15
2023-04-16T20:48:00.380Z,32.88
2023-04-16T20:52:03.575Z,31.95
2023-04-16T20:56:09.208Z,31.15
2023-04-16T21:00:12.855Z,33.05
2023-04-16T21:04:15.971Z,32.22
2023-04-16T21:08:19.169Z,29.00
2023-04-16T21:12:23.253Z,35.90
2023-04-16T21:16:25.972Z,32.17
2023-04-16T21:20:30.481Z,29.88
2023-04-16T21:24:33.529Z,30.15
2023-04-16T21:28:37.607Z,31.02
2023-04-16T21:32:40.264Z,30.83
2023-04-16T21:36:42.907Z,28.33
2023-04-16T21:40:46.681Z,33.67
2023-04-16T21:48:53.807Z,33.63
2023-04-16T21:52:56.610Z,27.80
2023-04-16T21:56:59.399Z,27.30
2023-04-16T22:01:03.747Z,41.53
2023-04-16T22:05:07.430Z,39.20
2023-04-16T22:09:10.352Z,30.98
2023-04-16T22:13:13.988Z,28.50
2023-04-16T22:17:18.208Z,29.90
2023-04-16T22:21:21.043Z,29.70
2023-04-16T22:25:24.165Z,33.30
2023-04-16T22:29:27.052Z,29.75
2023-04-16T22:33:31.585Z,29.65
2023-04-16T22:37:34.767Z,34.03
2023-04-16T22:41:37.514Z,33.45
2023-04-16T22:45:41.405Z,38.75
2023-04-16T22:49:45.772Z,44.97
2023-04-16T22:53:48.446Z,43.05
2023-04-16T22:57:51.142Z,51.25
2023-04-16T23:01:54.227Z,36.88
2023-04-16T23:05:58.666Z,34.38
2023-04-16T23:10:01.440Z,39.20
2023-04-16T23:14:05.036Z,36.00
2023-04-16T23:18:07.875Z,37.20
2023-04-16T23:22:12.246Z,40.15
2023-04-16T23:26:14.937Z,36.40
2023-04-16T23:30:18.101Z,33.05
2023-04-16T23:34:20.927Z,32.95
2023-04-16T23:38:25.193Z,37.70
2023-04-16T23:42:28.049Z,31.58
2023-04-16T23:46:31.170Z,29.27
2023-04-16T23:50:34.046Z,33.00
2023-04-16T23:54:38.459Z,32.90
2023-04-16T23:58:41.162Z,36.20
